Time;durP1;ratioP1;P1;durP2;ratioP2;P2;SDS_P1;SDS_P2;PMS_P1;PMS_P2;Temp;Humidity;BMP_temperature;BMP_pressure;BME280_temperature;BME280_humidity;BME280_pressure;Samples;Min_cycle;Max_cycle;Signal;HPM_P1;HPM_P2
2021/10/31 00:01:56;;;;;;;54.40;29.15;;;;;;;7.36;100.00;98195.88;5034000;28;20017;-84
2021/10/31 00:04:22;;;;;;;54.53;28.73;;;;;;;7.44;100.00;98187.59;5032231;28;20423;-84
2021/10/31 00:06:47;;;;;;;52.28;28.13;;;;;;;7.44;100.00;98198.25;5030254;28;20399;-84
2021/10/31 00:09:13;;;;;;;53.92;28.85;;;;;;;7.39;100.00;98186.88;5051512;28;20029;-83
2021/10/31 00:11:39;;;;;;;60.38;29.48;;;;;;;7.46;100.00;98177.75;5034954;28;20079;-83
2021/10/31 00:14:05;;;;;;;53.25;27.83;;;;;;;7.55;100.00;98185.38;5031433;28;20397;-83
2021/10/31 00:16:31;;;;;;;54.75;28.25;;;;;;;7.55;100.00;98191.56;5015395;28;20033;-83
2021/10/31 00:18:56;;;;;;;56.35;29.40;;;;;;;7.60;100.00;98178.94;5015387;28;20036;-83
2021/10/31 00:21:24;;;;;;;55.25;29.55;;;;;;;7.59;100.00;98187.00;5047947;28;20024;-83
2021/10/31 00:23:50;;;;;;;57.35;30.10;;;;;;;7.47;100.00;98187.47;5031102;28;20022;-82
2021/10/31 00:26:16;;;;;;;55.13;28.50;;;;;;;7.56;100.00;98189.78;5035238;28;20033;-84
2021/10/31 00:28:41;;;;;;;60.92;30.48;;;;;;;7.54;100.00;98183.63;5047819;28;20060;-83
2021/10/31 00:31:07;;;;;;;53.85;30.23;;;;;;;7.50;100.00;98177.59;5029198;28;20033;-83
2021/10/31 00:33:33;;;;;;;56.47;30.65;;;;;;;7.56;100.00;98171.13;5023872;28;20079;-83
2021/10/31 00:35:58;;;;;;;69.50;38.10;;;;;;;7.62;100.00;98181.53;5038066;28;20045;-84
2021/10/31 00:38:24;;;;;;;63.63;34.85;;;;;;;7.66;100.00;98182.28;5035207;28;20040;-84
2021/10/31 00:40:51;;;;;;;66.13;35.38;;;;;;;7.71;100.00;98186.50;5051388;28;20116;-83
2021/10/31 00:43:16;;;;;;;61.97;34.40;;;;;;;7.74;100.00;98180.19;5031051;28;20091;-82
2021/10/31 00:45:43;;;;;;;58.05;31.60;;;;;;;7.60;100.00;98162.94;5043383;28;20041;-83
2021/10/31 00:48:09;;;;;;;59.40;31.70;;;;;;;7.78;100.00;98177.34;5024119;28;20109;-83
2021/10/31 00:50:34;;;;;;;56.97;30.55;;;;;;;7.81;100.00;98182.53;5030258;28;20053;-82
2021/10/31 00:53:01;;;;;;;65.55;32.03;;;;;;;7.84;100.00;98171.75;5033582;28;20025;-84
2021/10/31 00:55:27;;;;;;;64.82;30.98;;;;;;;7.93;100.00;98178.50;5030077;28;20063;-82
2021/10/31 00:57:52;;;;;;;60.15;31.05;;;;;;;7.89;100.00;98163.56;5023741;28;20651;-83
2021/10/31 01:00:18;;;;;;;60.90;31.02;;;;;;;7.95;100.00;98171.31;5009240;28;20508;-82
2021/10/31 01:02:43;;;;;;;64.07;32.92;;;;;;;7.94;100.00;98162.44;5021271;28;20026;-84
2021/10/31 01:05:13;;;;;;;61.40;33.97;;;;;;;7.90;100.00;98166.19;5024212;28;20156;-82
2021/10/31 01:08:12;;;;;;;67.88;31.40;;;;;;;7.94;100.00;98166.91;5014354;28;20395;-82
2021/10/31 01:11:02;;;;;;;59.55;30.00;;;;;;;7.92;100.00;98163.44;5015538;28;20413;-83
2021/10/31 01:13:56;;;;;;;62.95;32.50;;;;;;;7.98;100.00;98163.19;5015240;28;20092;-83
2021/10/31 01:16:46;;;;;;;59.58;30.50;;;;;;;8.03;100.00;98170.03;5009817;28;20149;-83
2021/10/31 01:19:29;;;;;;;59.85;30.05;;;;;;;8.02;100.00;98170.13;5033356;28;20044;-82
2021/10/31 01:22:13;;;;;;;60.58;33.28;;;;;;;7.96;100.00;98160.59;5023138;28;20179;-82
2021/10/31 01:24:56;;;;;;;60.47;32.50;;;;;;;8.04;100.00;98173.59;5014751;28;20151;-84
2021/10/31 01:27:28;;;;;;;62.47;31.60;;;;;;;7.98;100.00;98157.84;5034139;28;20053;-83
2021/10/31 01:30:02;;;;;;;58.60;33.00;;;;;;;8.00;100.00;98164.84;5025900;28;20033;-83
2021/10/31 01:32:53;;;;;;;63.92;32.65;;;;;;;8.02;100.00;98164.81;5028778;28;20042;-83
2021/10/31 01:36:01;;;;;;;61.75;33.72;;;;;;;8.05;100.00;98154.88;5018292;28;20022;-83
2021/10/31 01:38:42;;;;;;;68.15;34.72;;;;;;;8.03;100.00;98139.88;4991251;28;20095;-84
2021/10/31 01:41:13;;;;;;;65.97;33.20;;;;;;;8.10;100.00;98160.00;5017194;28;20528;-83
2021/10/31 01:43:39;;;;;;;68.93;34.80;;;;;;;8.07;100.00;98157.47;5014566;28;20049;-83
2021/10/31 01:46:04;;;;;;;62.65;35.53;;;;;;;8.04;100.00;98150.47;5027086;28;20481;-84
2021/10/31 01:48:33;;;;;;;71.15;36.55;;;;;;;8.04;100.00;98147.81;5022746;28;20112;-83
2021/10/31 01:51:01;;;;;;;71.53;34.63;;;;;;;7.96;100.00;98144.63;5013991;28;20456;-83
2021/10/31 01:53:35;;;;;;;69.35;33.88;;;;;;;7.94;100.00;98149.13;5013298;28;20025;-83
2021/10/31 01:56:29;;;;;;;61.83;33.67;;;;;;;8.00;100.00;98142.66;5013824;28;20026;-83
2021/10/31 01:59:11;;;;;;;65.30;33.53;;;;;;;8.01;100.00;98142.63;5029338;28;20437;-83
2021/10/31 02:01:42;;;;;;;67.85;34.28;;;;;;;7.90;100.00;98115.56;5033014;28;20534;-83
2021/10/31 02:04:10;;;;;;;60.10;32.03;;;;;;;7.92;100.00;98127.03;5027163;28;20123;-84
2021/10/31 02:06:38;;;;;;;62.78;32.97;;;;;;;7.95;100.00;98137.53;5045374;28;20122;-84
2021/10/31 02:09:04;;;;;;;60.72;32.38;;;;;;;7.89;100.00;98127.16;5020069;28;20033;-84
2021/10/31 02:11:36;;;;;;;61.85;33.35;;;;;;;7.86;100.00;98116.63;5030204;28;20036;-84
2021/10/31 02:14:02;;;;;;;61.28;33.22;;;;;;;7.92;100.00;98132.34;5041598;28;20025;-84
2021/10/31 02:16:29;;;;;;;62.33;32.45;;;;;;;8.08;100.00;98138.78;5028276;28;20112;-84
2021/10/31 02:19:02;;;;;;;66.90;33.40;;;;;;;8.07;100.00;98128.16;5024892;28;20021;-82
2021/10/31 02:21:28;;;;;;;62.60;32.78;;;;;;;7.99;100.00;98112.53;5037679;28;20510;-83
2021/10/31 02:23:57;;;;;;;62.70;34.53;;;;;;;7.92;100.00;98120.81;5031328;28;20025;-85
2021/10/31 02:26:23;;;;;;;65.53;34.40;;;;;;;7.97;100.00;98133.00;5034025;28;20029;-84
2021/10/31 02:28:59;;;;;;;69.03;33.53;;;;;;;7.89;100.00;98116.50;5020267;28;20032;-84
2021/10/31 02:31:26;;;;;;;62.08;34.42;;;;;;;8.02;100.00;98122.19;5020815;28;20040;-84
2021/10/31 02:33:52;;;;;;;60.08;32.35;;;;;;;7.93;100.00;98115.44;5032896;28;20028;-83
2021/10/31 02:36:17;;;;;;;63.35;33.60;;;;;;;7.98;100.00;98116.09;5036621;28;20091;-83
2021/10/31 02:38:43;;;;;;;62.58;34.30;;;;;;;8.09;100.00;98129.81;5038480;28;20030;-83
2021/10/31 02:41:10;;;;;;;66.70;33.20;;;;;;;8.01;100.00;98100.00;5042196;28;20031;-75
2021/10/31 02:43:42;;;;;;;63.88;34.10;;;;;;;8.19;100.00;98128.50;5054979;28;20055;-84
2021/10/31 02:46:08;;;;;;;63.00;34.05;;;;;;;8.14;100.00;98117.19;5028427;28;20036;-84
2021/10/31 02:48:34;;;;;;;61.22;32.88;;;;;;;8.08;100.00;98124.56;5036962;28;20427;-85
2021/10/31 02:51:17;;;;;;;63.05;34.13;;;;;;;7.93;100.00;98115.44;5052966;28;20033;-84
2021/10/31 02:54:06;;;;;;;63.58;34.75;;;;;;;7.99;100.00;98128.50;5053276;28;20403;-83
2021/10/31 02:56:42;;;;;;;60.28;32.58;;;;;;;7.99;100.00;98127.63;5033155;28;20051;-84
2021/10/31 02:59:38;;;;;;;62.30;33.88;;;;;;;7.80;100.00;98119.53;5024318;28;20041;-84
2021/10/31 03:02:04;;;;;;;65.80;33.50;;;;;;;7.85;100.00;98117.53;5021508;28;20112;-82
2021/10/31 03:04:30;;;;;;;59.30;32.20;;;;;;;7.92;100.00;98124.34;5021914;28;20465;-83
2021/10/31 03:07:10;;;;;;;54.63;32.08;;;;;;;8.02;100.00;98119.50;5016640;28;20029;-83
2021/10/31 03:09:36;;;;;;;59.50;32.00;;;;;;;8.08;100.00;98116.59;5016171;28;20503;-84
2021/10/31 03:12:04;;;;;;;61.95;31.92;;;;;;;8.01;100.00;98117.78;5022689;28;20115;-73
2021/10/31 03:14:29;;;;;;;54.20;30.67;;;;;;;8.06;100.00;98116.63;5039678;28;20098;-82
2021/10/31 03:16:56;;;;;;;64.13;33.15;;;;;;;8.05;100.00;98111.38;5034929;28;20454;-82
2021/10/31 03:19:32;;;;;;;64.18;36.58;;;;;;;7.99;100.00;98132.97;5044279;28;20399;-83
2021/10/31 03:21:58;;;;;;;68.95;34.67;;;;;;;7.85;100.00;98124.66;5023907;28;20025;-82
2021/10/31 03:24:23;;;;;;;66.38;35.58;;;;;;;7.85;100.00;98125.53;5030424;28;20033;-81
2021/10/31 03:26:49;;;;;;;61.08;34.00;;;;;;;7.94;100.00;98114.50;5022239;28;20039;-82
2021/10/31 03:29:15;;;;;;;64.55;34.90;;;;;;;7.94;100.00;98110.97;5023486;28;20040;-81
2021/10/31 03:31:52;;;;;;;66.82;35.08;;;;;;;8.00;100.00;98118.69;5026894;28;20138;-82
2021/10/31 03:34:19;;;;;;;61.72;31.08;;;;;;;8.13;100.00;98127.91;5031712;28;20033;-81
2021/10/31 03:36:45;;;;;;;54.88;30.17;;;;;;;7.92;100.00;98121.69;5045898;28;20024;-82
2021/10/31 03:39:11;;;;;;;57.88;29.98;;;;;;;7.95;100.00;98121.56;5034600;28;20028;-83
2021/10/31 03:41:36;;;;;;;55.60;30.40;;;;;;;7.99;100.00;98117.84;5025851;28;20476;-82
2021/10/31 03:44:03;;;;;;;54.10;30.08;;;;;;;8.03;100.00;98123.88;5022431;28;20060;-84
2021/10/31 03:46:29;;;;;;;57.15;29.83;;;;;;;8.02;100.00;98122.19;5025635;28;20030;-82
2021/10/31 03:48:55;;;;;;;53.95;28.45;;;;;;;7.83;100.00;98092.78;5031707;28;20163;-82
2021/10/31 03:51:20;;;;;;;53.30;29.02;;;;;;;7.99;100.00;98120.50;5034879;28;20435;-83
2021/10/31 03:53:46;;;;;;;57.53;31.33;;;;;;;8.02;100.00;98109.72;5037733;28;20459;-81
2021/10/31 03:56:11;;;;;;;57.72;29.40;;;;;;;8.03;100.00;98103.44;5015454;28;20021;-83
2021/10/31 03:58:37;;;;;;;54.70;31.52;;;;;;;7.94;100.00;98109.16;5038218;28;20037;-81
2021/10/31 04:01:03;;;;;;;57.38;30.58;;;;;;;7.97;100.00;98111.69;5020346;28;20059;-82
2021/10/31 04:03:28;;;;;;;59.40;30.02;;;;;;;7.96;100.00;98106.47;5033875;28;20029;-83
2021/10/31 04:05:54;;;;;;;56.20;29.52;;;;;;;7.79;100.00;98061.88;5026095;28;20052;-83
2021/10/31 04:08:20;;;;;;;55.92;30.65;;;;;;;7.88;100.00;98097.91;5023874;28;20404;-83
2021/10/31 04:10:45;;;;;;;51.70;28.58;;;;;;;7.88;100.00;98098.78;5034590;28;20033;-83
2021/10/31 04:13:11;;;;;;;54.42;30.20;;;;;;;7.92;100.00;98105.72;5025833;28;20031;-82
2021/10/31 04:15:37;;;;;;;52.90;30.45;;;;;;;8.01;100.00;98104.44;5026598;28;20535;-83
2021/10/31 04:18:03;;;;;;;57.38;31.38;;;;;;;7.88;100.00;98088.13;5031753;28;20496;-82
2021/10/31 04:20:28;;;;;;;63.78;34.05;;;;;;;7.88;100.00;98079.25;5034476;28;20028;-82
2021/10/31 04:22:54;;;;;;;66.68;33.85;;;;;;;8.02;100.00;98091.09;5039841;28;20552;-83
2021/10/31 04:25:20;;;;;;;53.05;30.83;;;;;;;7.95;100.00;98084.28;5051081;28;20040;-82
2021/10/31 04:27:45;;;;;;;56.42;30.80;;;;;;;7.90;100.00;98080.94;5031648;28;20405;-82
2021/10/31 04:30:15;;;;;;;59.15;30.33;;;;;;;8.01;100.00;98093.78;5029070;28;20118;-83
2021/10/31 04:32:41;;;;;;;60.00;30.05;;;;;;;8.00;100.00;98092.91;5031080;28;20037;-82
2021/10/31 04:35:10;;;;;;;55.25;30.02;;;;;;;8.08;100.00;98096.16;5031046;28;20056;-83
2021/10/31 04:37:39;;;;;;;55.05;29.65;;;;;;;8.07;100.00;98096.19;5030785;28;20561;-82
2021/10/31 04:40:07;;;;;;;60.00;30.20;;;;;;;8.01;100.00;98072.47;5029191;28;20028;-83
2021/10/31 04:42:34;;;;;;;58.35;30.83;;;;;;;8.01;100.00;98083.13;5025717;28;20037;-83
2021/10/31 04:45:00;;;;;;;52.90;29.15;;;;;;;7.88;100.00;98055.28;5033897;28;20043;-81
2021/10/31 04:47:25;;;;;;;52.40;28.98;;;;;;;8.11;100.00;98084.47;5033620;28;20127;-83
2021/10/31 04:49:51;;;;;;;50.90;28.52;;;;;;;8.05;100.00;98080.28;5048441;28;20068;-81
2021/10/31 04:52:17;;;;;;;51.08;26.88;;;;;;;7.92;100.00;98048.91;5019578;28;20040;-82
2021/10/31 04:54:42;;;;;;;53.50;27.23;;;;;;;8.23;100.00;98089.28;5033622;28;20602;-82
2021/10/31 04:57:08;;;;;;;46.72;26.02;;;;;;;8.21;100.00;98079.63;5037260;28;20469;-82
2021/10/31 04:59:34;;;;;;;54.50;28.10;;;;;;;8.00;100.00;98066.28;5042517;28;20487;-83
2021/10/31 05:02:00;;;;;;;53.70;25.95;;;;;;;7.88;100.00;98066.81;5028519;28;20028;-81
2021/10/31 05:04:25;;;;;;;51.42;27.23;;;;;;;7.88;100.00;98082.78;5029181;28;20032;-81
2021/10/31 05:06:51;;;;;;;48.92;27.17;;;;;;;7.84;100.00;98081.22;5042588;28;20025;-81
2021/10/31 05:09:17;;;;;;;57.83;27.80;;;;;;;7.79;100.00;98085.84;5053769;28;20115;-81
2021/10/31 05:11:42;;;;;;;49.28;28.35;;;;;;;7.68;100.00;98080.13;5036775;28;20510;-81
2021/10/31 05:14:08;;;;;;;53.50;27.45;;;;;;;7.77;100.00;98078.88;5062075;28;20498;-82
2021/10/31 05:16:35;;;;;;;53.10;28.40;;;;;;;7.76;100.00;98062.00;5060894;28;20078;-83
2021/10/31 05:19:02;;;;;;;53.20;28.95;;;;;;;7.96;100.00;98079.81;5067866;28;20017;-83
2021/10/31 05:21:28;;;;;;;55.72;27.63;;;;;;;7.95;100.00;98073.63;5042738;28;20067;-84
2021/10/31 05:23:53;;;;;;;57.60;28.45;;;;;;;7.93;100.00;98080.81;5062103;28;20097;-83
2021/10/31 05:26:19;;;;;;;49.88;27.65;;;;;;;7.98;100.00;98076.16;5036509;28;20034;-83
2021/10/31 05:28:45;;;;;;;59.67;28.58;;;;;;;8.04;100.00;98078.56;5034239;28;20025;-82
2021/10/31 05:31:10;;;;;;;54.58;27.95;;;;;;;8.13;100.00;98085.28;5029138;28;20029;-84
2021/10/31 05:33:36;;;;;;;60.20;30.42;;;;;;;8.00;100.00;98086.72;5035036;28;20035;-82
2021/10/31 05:36:02;;;;;;;75.65;32.00;;;;;;;8.23;100.00;98099.06;5021986;28;20100;-83
2021/10/31 05:38:27;;;;;;;50.58;27.20;;;;;;;8.19;100.00;98072.53;5034053;28;20028;-82
2021/10/31 05:40:53;;;;;;;58.35;27.15;;;;;;;8.22;100.00;98082.19;5029662;28;20554;-82
2021/10/31 05:43:19;;;;;;;50.53;27.05;;;;;;;8.20;100.00;98086.75;5037375;28;20120;-82
2021/10/31 05:45:45;;;;;;;52.67;29.05;;;;;;;8.31;100.00;98089.81;5037255;28;20032;-81
2021/10/31 05:48:11;;;;;;;60.13;32.25;;;;;;;8.38;100.00;98093.09;5041991;28;20032;-82
2021/10/31 05:50:36;;;;;;;52.33;28.60;;;;;;;8.38;100.00;98077.97;5028664;28;20597;-82
2021/10/31 05:53:06;;;;;;;50.92;28.70;;;;;;;8.44;100.00;98079.47;5018280;28;20029;-83
2021/10/31 05:55:34;;;;;;;52.92;28.67;;;;;;;8.47;100.00;98084.69;5050872;28;20052;-84
2021/10/31 05:58:03;;;;;;;51.80;29.50;;;;;;;8.40;100.00;98084.09;5029087;28;20112;-83
2021/10/31 06:00:39;;;;;;;53.88;29.05;;;;;;;8.49;100.00;98088.16;5033612;28;20035;-82
2021/10/31 06:03:05;;;;;;;54.67;30.30;;;;;;;8.41;100.00;98060.97;5041137;28;20543;-82
2021/10/31 06:05:31;;;;;;;67.70;34.88;;;;;;;8.53;100.00;98066.59;5038928;28;20040;-82
2021/10/31 06:07:58;;;;;;;71.90;35.40;;;;;;;8.76;100.00;98084.22;5029110;28;20024;-83
2021/10/31 06:10:23;;;;;;;59.17;34.63;;;;;;;8.89;100.00;98096.03;5037630;28;20036;-84
2021/10/31 06:12:49;;;;;;;69.05;35.28;;;;;;;9.03;100.00;98098.06;5049244;28;20027;-83
2021/10/31 06:15:21;;;;;;;59.58;33.60;;;;;;;9.12;100.00;98101.19;5050289;28;20036;-82
2021/10/31 06:17:47;;;;;;;67.55;32.53;;;;;;;9.16;100.00;98099.25;5036235;28;20120;-83
2021/10/31 06:20:14;;;;;;;49.95;28.55;;;;;;;9.32;100.00;98108.22;5034191;28;20067;-83
2021/10/31 06:22:40;;;;;;;55.47;28.77;;;;;;;9.40;100.00;98103.41;5035165;28;20020;-83
2021/10/31 06:25:07;;;;;;;61.28;32.95;;;;;;;9.52;100.00;98104.59;5046536;28;20032;-82
2021/10/31 06:27:33;;;;;;;57.92;30.85;;;;;;;9.38;100.00;98099.94;5032042;28;20043;-82
2021/10/31 06:29:59;;;;;;;69.40;36.25;;;;;;;9.48;100.00;98097.66;5025438;28;20029;-82
2021/10/31 06:32:25;;;;;;;84.55;45.05;;;;;;;9.57;100.00;98103.44;5048291;28;20036;-82
2021/10/31 06:34:54;;;;;;;64.10;34.13;;;;;;;9.73;99.67;98122.25;5072819;28;20021;-82
2021/10/31 06:37:19;;;;;;;50.45;29.00;;;;;;;9.80;98.52;98113.00;5056401;28;20423;-82
2021/10/31 06:39:45;;;;;;;62.10;33.22;;;;;;;9.92;97.55;98112.38;5035057;28;20029;-82
2021/10/31 06:42:11;;;;;;;63.17;32.25;;;;;;;9.85;97.06;98100.25;5033061;28;20533;-83
2021/10/31 06:44:37;;;;;;;58.50;33.20;;;;;;;9.96;97.11;98118.44;5029109;28;20032;-82
2021/10/31 06:47:03;;;;;;;60.65;32.85;;;;;;;9.98;97.30;98121.88;5025840;28;20116;-82
2021/10/31 06:49:31;;;;;;;51.42;27.40;;;;;;;10.01;96.67;98111.91;5034980;28;20568;-82
2021/10/31 06:51:56;;;;;;;49.38;27.13;;;;;;;10.27;95.46;98121.31;5040325;28;20028;-82
2021/10/31 06:54:22;;;;;;;55.95;28.55;;;;;;;10.37;94.43;98105.66;5027662;28;20028;-83
2021/10/31 06:56:48;;;;;;;47.33;24.38;;;;;;;10.27;93.13;98082.06;5030090;28;20052;-82
2021/10/31 06:59:14;;;;;;;45.40;23.60;;;;;;;10.48;92.30;98100.59;5042987;28;20140;-82
2021/10/31 07:01:39;;;;;;;43.05;24.25;;;;;;;10.62;92.02;98114.09;5044299;28;20031;-83
2021/10/31 07:04:07;;;;;;;52.60;31.33;;;;;;;10.62;92.12;98106.09;5032561;28;20032;-82
2021/10/31 07:06:34;;;;;;;46.05;24.85;;;;;;;10.80;91.72;98119.34;5047903;28;20017;-83
2021/10/31 07:08:59;;;;;;;46.45;24.63;;;;;;;10.54;91.98;98101.16;5031921;28;20020;-84
2021/10/31 07:11:25;;;;;;;45.53;24.00;;;;;;;10.29;92.62;98090.00;5055741;28;20035;-85
2021/10/31 07:13:51;;;;;;;42.72;22.75;;;;;;;10.61;92.49;98099.03;5028726;28;20032;-83
2021/10/31 07:16:16;;;;;;;40.38;23.08;;;;;;;10.44;90.80;98077.63;5038725;28;20488;-81
2021/10/31 07:18:42;;;;;;;55.95;31.95;;;;;;;10.59;90.79;98098.22;5034343;28;20040;-84
2021/10/31 07:21:07;;;;;;;42.83;25.25;;;;;;;10.81;89.68;98086.28;5072658;28;20070;-82
2021/10/31 07:23:34;;;;;;;46.92;24.27;;;;;;;11.05;88.05;98080.53;5048307;28;20435;-83
2021/10/31 07:26:00;;;;;;;56.22;25.45;;;;;;;11.04;88.08;98109.13;5039438;28;20479;-84
2021/10/31 07:28:25;;;;;;;43.97;26.00;;;;;;;11.11;88.46;98097.13;5055375;28;20483;-81
2021/10/31 07:30:52;;;;;;;51.15;27.00;;;;;;;11.42;86.32;98094.47;5038517;28;20028;-83
2021/10/31 07:33:18;;;;;;;44.55;25.85;;;;;;;11.70;85.17;98109.88;5042684;28;20037;-80
2021/10/31 07:35:45;;;;;;;44.78;26.73;;;;;;;11.86;83.93;98091.09;5058402;28;20397;-82
2021/10/31 07:38:11;;;;;;;45.75;24.98;;;;;;;11.92;81.59;98090.72;5030244;28;20052;-82
2021/10/31 07:40:37;;;;;;;52.53;25.98;;;;;;;11.46;84.12;98086.25;5025471;28;20040;-80
2021/10/31 07:43:04;;;;;;;51.83;27.08;;;;;;;11.89;83.46;98094.44;5027794;28;20036;-81
2021/10/31 07:45:30;;;;;;;45.67;24.77;;;;;;;11.98;81.49;98068.91;5026677;28;20106;-82
2021/10/31 07:47:56;;;;;;;51.08;24.70;;;;;;;12.26;81.01;98090.47;5037498;28;20495;-82
2021/10/31 07:50:22;;;;;;;42.85;23.67;;;;;;;12.64;78.66;98084.59;5032632;28;20099;-83
2021/10/31 07:52:48;;;;;;;42.25;24.92;;;;;;;12.97;76.79;98083.34;5029803;28;20087;-82
2021/10/31 07:55:17;;;;;;;46.17;26.88;;;;;;;12.59;77.19;98094.72;5027505;28;20032;-82
2021/10/31 07:57:45;;;;;;;48.30;26.08;;;;;;;12.70;77.30;98085.06;5019312;28;20139;-82
2021/10/31 08:00:12;;;;;;;49.45;28.55;;;;;;;12.98;76.29;98073.47;5019254;28;20029;-82
2021/10/31 08:02:38;;;;;;;50.03;26.98;;;;;;;13.41;74.26;98088.59;5039897;28;20032;-83
2021/10/31 08:05:03;;;;;;;49.92;29.58;;;;;;;13.47;73.48;98066.69;5021542;28;20033;-81
2021/10/31 08:07:30;;;;;;;63.67;35.10;;;;;;;13.64;72.48;98072.78;5026568;28;20063;-81
2021/10/31 08:09:59;;;;;;;65.60;37.58;;;;;;;14.11;70.72;98083.94;5024772;28;20033;-81
2021/10/31 08:12:26;;;;;;;76.60;41.20;;;;;;;14.28;68.72;98067.50;5026027;28;20487;-81
2021/10/31 08:14:52;;;;;;;91.35;47.50;;;;;;;13.67;71.39;98080.66;5050840;28;20031;-82
2021/10/31 08:17:17;;;;;;;83.00;44.50;;;;;;;14.24;69.70;98074.09;5043856;28;20112;-82
2021/10/31 08:19:43;;;;;;;79.38;45.75;;;;;;;13.98;69.85;98061.50;5031396;28;20041;-75
2021/10/31 08:22:09;;;;;;;80.43;47.17;;;;;;;14.63;67.88;98078.56;5039281;28;20029;-74
2021/10/31 08:24:34;;;;;;;80.65;44.67;;;;;;;15.05;65.94;98066.59;5017867;28;20464;-73
2021/10/31 08:27:00;;;;;;;71.32;37.08;;;;;;;15.05;64.96;98066.59;5037763;28;20033;-74
2021/10/31 08:29:26;;;;;;;86.43;43.90;;;;;;;14.22;68.39;98067.91;5041775;28;20064;-74
2021/10/31 08:31:55;;;;;;;86.97;50.47;;;;;;;14.38;68.26;98065.94;5031137;28;20025;-76
2021/10/31 08:34:21;;;;;;;58.28;31.90;;;;;;;14.18;68.36;98047.56;5042987;28;20029;-75
2021/10/31 08:36:47;;;;;;;54.17;30.67;;;;;;;14.33;68.41;98054.66;5021883;28;20021;-76
2021/10/31 08:39:13;;;;;;;47.42;26.08;;;;;;;13.65;71.03;98061.09;5041341;28;20476;-75
2021/10/31 08:41:38;;;;;;;47.58;26.98;;;;;;;14.11;69.95;98059.72;5035243;28;20100;-75
2021/10/31 08:44:06;;;;;;;48.78;24.85;;;;;;;14.19;69.19;98060.06;5029367;28;20020;-75
2021/10/31 08:46:31;;;;;;;41.25;23.83;;;;;;;13.88;70.26;98041.56;5025193;28;20112;-76
2021/10/31 08:48:59;;;;;;;46.13;23.70;;;;;;;14.08;70.61;98049.19;5031408;28;20483;-76
2021/10/31 08:51:25;;;;;;;40.88;22.27;;;;;;;14.34;68.81;98053.66;5028732;28;20033;-75
2021/10/31 08:53:52;;;;;;;49.13;24.33;;;;;;;14.32;69.36;98044.81;5034155;28;20029;-74
2021/10/31 08:56:19;;;;;;;46.70;23.35;;;;;;;13.71;71.08;98047.22;5032279;28;20095;-75
2021/10/31 08:58:45;;;;;;;42.00;23.13;;;;;;;13.61;71.43;98046.09;5014317;28;20045;-75
2021/10/31 09:01:14;;;;;;;50.60;25.25;;;;;;;14.12;69.76;98030.00;5030684;28;20036;-75
2021/10/31 09:03:44;;;;;;;36.00;20.80;;;;;;;14.21;68.34;98036.63;5037643;28;20025;-75
2021/10/31 09:06:11;;;;;;;27.67;17.50;;;;;;;14.31;67.33;98034.13;5038881;28;20040;-74
2021/10/31 09:08:37;;;;;;;46.17;23.67;;;;;;;14.40;67.02;98029.00;5014981;28;20459;-75
2021/10/31 09:11:02;;;;;;;39.40;23.45;;;;;;;14.43;67.22;98027.94;5032778;28;20021;-75
2021/10/31 09:13:28;;;;;;;37.58;22.00;;;;;;;14.50;67.38;98027.41;5015884;28;20116;-75
2021/10/31 09:15:54;;;;;;;43.13;23.40;;;;;;;14.62;66.71;98031.94;5029804;28;20025;-76
2021/10/31 09:18:20;;;;;;;46.28;26.95;;;;;;;14.70;66.60;98025.16;5030305;28;20032;-75
2021/10/31 09:20:45;;;;;;;39.72;22.15;;;;;;;14.42;66.75;98024.41;5045859;28;20082;-75
2021/10/31 09:23:11;;;;;;;40.88;22.45;;;;;;;13.69;70.39;98011.53;5029557;28;20064;-75
2021/10/31 09:25:37;;;;;;;40.58;22.17;;;;;;;13.69;70.97;98011.53;5034725;28;20441;-74
2021/10/31 09:28:03;;;;;;;41.03;22.98;;;;;;;14.07;69.78;98013.34;5020654;28;20028;-75
2021/10/31 09:30:31;;;;;;;39.25;22.77;;;;;;;14.09;69.68;98007.84;5049749;28;20044;-75
2021/10/31 09:32:56;;;;;;;43.58;23.95;;;;;;;14.11;68.88;98004.09;5021184;28;20021;-75
2021/10/31 09:35:25;;;;;;;40.60;23.95;;;;;;;13.67;70.37;98008.06;5029156;28;20025;-75
2021/10/31 09:37:56;;;;;;;39.50;23.50;;;;;;;13.53;71.02;98003.63;5012571;28;20055;-75
2021/10/31 09:40:22;;;;;;;43.42;25.02;;;;;;;13.32;71.89;97992.44;5033672;28;20420;-76
2021/10/31 09:42:51;;;;;;;42.25;23.17;;;;;;;13.71;70.57;97982.72;5033277;28;20021;-75
2021/10/31 09:48:13;;;;;;;34.85;20.38;;;;;;;13.93;68.59;97980.28;5022443;28;20045;-75
2021/10/31 09:50:43;;;;;;;51.00;26.75;;;;;;;14.26;67.63;97986.03;5032538;28;20108;-75
2021/10/31 09:53:10;;;;;;;43.05;22.38;;;;;;;14.11;66.51;97934.16;5041076;28;20036;-75
2021/10/31 09:55:36;;;;;;;37.20;21.05;;;;;;;14.21;65.79;97966.66;5032710;28;20021;-75
2021/10/31 09:58:17;;;;;;;32.88;19.88;;;;;;;14.47;64.44;97972.91;5051660;28;20051;-76
2021/10/31 10:00:48;;;;;;;36.50;19.83;;;;;;;14.94;61.81;97961.44;5037591;28;20357;-76
2021/10/31 10:03:35;;;;;;;32.38;20.42;;;;;;;15.51;60.50;97950.88;5048835;28;20345;-75
2021/10/31 10:06:38;;;;;;;56.13;31.48;;;;;;;16.29;59.21;97954.72;5036127;28;20442;-75
2021/10/31 10:09:29;;;;;;;45.00;24.30;;;;;;;16.77;55.44;97931.06;5055519;28;20447;-76
2021/10/31 10:11:55;;;;;;;50.50;26.63;;;;;;;16.45;56.58;97943.56;5051695;28;20124;-76
2021/10/31 10:14:24;;;;;;;51.90;30.58;;;;;;;16.54;55.76;97932.03;5044208;28;20111;-76
2021/10/31 10:16:58;;;;;;;42.53;25.88;;;;;;;16.09;55.32;97926.56;5038863;28;20028;-74
2021/10/31 10:19:38;;;;;;;;;;;;;;;;;;;;;
2021/10/31 10:22:10;;;;;;;45.58;25.70;;;;;;;15.85;53.66;97919.50;5057219;28;20036;-75
2021/10/31 10:24:39;;;;;;;43.03;25.73;;;;;;;16.25;53.88;97913.59;5056223;28;20040;-77
2021/10/31 10:27:07;;;;;;;42.08;24.20;;;;;;;16.61;53.56;97914.38;5060993;28;20021;-76
2021/10/31 10:29:37;;;;;;;40.90;23.83;;;;;;;16.57;52.93;97910.19;5050280;28;20039;-75
2021/10/31 10:32:05;;;;;;;48.33;23.95;;;;;;;16.83;52.55;97900.00;5052663;28;20095;-75
2021/10/31 10:34:50;;;;;;;33.20;21.48;;;;;;;16.44;51.93;97909.41;5063615;28;20028;-77
2021/10/31 10:37:22;;;;;;;36.58;21.23;;;;;;;16.80;51.25;97901.94;5036401;28;20114;-75
2021/10/31 10:40:02;;;;;;;26.83;14.63;;;;;;;17.25;48.88;97880.22;5038677;28;20028;-74
2021/10/31 10:42:43;;;;;;;24.05;14.70;;;;;;;17.56;47.75;97876.72;5040516;28;20079;-75
2021/10/31 10:45:17;;;;;;;22.80;15.13;;;;;;;16.81;48.70;97878.50;5054744;28;20024;-76
2021/10/31 10:47:59;;;;;;;52.60;31.02;;;;;;;16.77;49.06;97886.00;5035464;28;20523;-75
2021/10/31 10:50:39;;;;;;;29.87;18.37;;;;;;;16.70;48.33;97875.81;5055289;28;20060;-75
2021/10/31 10:53:16;;;;;;;37.28;14.30;;;;;;;17.01;48.04;97879.56;5061780;28;20384;-76
2021/10/31 10:55:42;;;;;;;23.25;13.57;;;;;;;17.25;47.42;97858.59;5037480;28;20104;-76
2021/10/31 10:58:11;;;;;;;21.67;12.85;;;;;;;17.18;46.75;97860.97;5037734;28;20060;-75
2021/10/31 11:00:39;;;;;;;20.98;13.15;;;;;;;17.75;45.72;97852.47;5019663;28;20056;-76
2021/10/31 11:03:13;;;;;;;24.48;15.55;;;;;;;17.96;44.90;97849.78;5069173;28;20024;-75
2021/10/31 11:05:41;;;;;;;31.00;16.48;;;;;;;17.93;45.15;97849.19;5060305;28;20424;-75
2021/10/31 11:08:18;;;;;;;31.35;15.55;;;;;;;17.64;45.39;97844.44;5037906;28;20033;-76
2021/10/31 11:10:55;;;;;;;25.85;16.52;;;;;;;17.23;45.75;97830.81;5058617;28;20068;-76
2021/10/31 11:13:26;;;;;;;29.50;15.70;;;;;;;17.48;45.57;97849.41;5044216;28;20033;-75
2021/10/31 11:15:53;;;;;;;22.40;13.80;;;;;;;17.80;44.53;97839.44;5032119;28;20029;-74
2021/10/31 11:18:19;;;;;;;19.02;12.07;;;;;;;16.93;45.30;97834.25;5039635;28;20087;-75
2021/10/31 11:20:46;;;;;;;22.25;12.02;;;;;;;16.91;45.32;97821.84;5023357;28;20024;-74
2021/10/31 11:23:16;;;;;;;23.70;14.75;;;;;;;16.88;45.37;97824.81;5023930;28;20063;-73
2021/10/31 11:25:44;;;;;;;45.20;20.35;;;;;;;17.23;44.47;97825.41;5064982;28;20550;-74
2021/10/31 11:28:13;;;;;;;33.38;16.65;;;;;;;17.54;43.97;97819.13;5026224;28;20039;-75
2021/10/31 11:30:40;;;;;;;21.55;12.93;;;;;;;17.17;44.58;97824.09;5048956;28;20036;-73